Last 30 Days

Bell Hill-West

Daily Data | America/Los_Angeles
as of 7/15/24 4:30 PM PDT
Date Daily Max Temp (°F) Time of Max Temp Daily Min Temp (°F) Time of Min Temp Daily Rain (In) Month Precip (In) Season Precip (In) Wind Spd (mph) Daily Max Wind (mph) Time of Max Wind Max Wind Dir (°) Daily ETo (in) 7 Day ETo (in) Daily Solar Rad (Cal/cm2) Dew Pt (°F) Max RH (%) Min RH (%) Hrs 70-85F (hrs) Hrs > 95F (hrs) Powdery Mildew Stress (pts) GDDs (DL) GDDs (Mx/Mn) Seas GDDs (DL) Seas GDDs (Smpl) Hrs <= 32F (hrs) Hrs <= 28F (hrs) Chilling <=45F (hrs) Chill Hrs 32-45F (hrs) Utah Chilling (Units) Degree Hrs (hrs) MinBV Day (V)
7/14/24 96.9 1350 64.2 0623 0.00 0.00 0.00 3.5 15.5 1401 SSW | 197 0.297 2.05 753 54.9 74 15 6.61 2.48 10 30.5 30.5 1,658 1,520 0.0 0.0 0.0 0.0 -24.0 372.6 12.6
7/13/24 101.9 1353 60.6 0545 0.00 0.00 0.00 3.4 14.8 1512 SSW | 206 0.250 2.05 611 57.2 75 24 5.74 3.44 0 30.2 31.2 1,628 1,489 0.0 0.0 0.0 0.0 -22.0 373.3 12.6
7/12/24 105.0 1506 59.4 0607 0.00 0.00 0.00 3.7 14.2 1602 SSW | 208 0.303 2.10 745 54.3 74 15 3.13 7.96 0 32.8 32.2 1,598 1,458 0.0 0.0 0.0 0.0 -21.5 442.9 12.6
7/11/24 104.4 1530 61.4 0558 0.00 0.00 0.00 3.7 15.5 1536 SSW | 195 0.307 2.11 756 56.4 82 14 3.19 7.89 0 33.1 32.9 1,565 1,426 0.0 0.0 0.0 0.0 -22.0 441.5 12.5
7/10/24 103.2 1425 60.9 0608 0.00 0.00 0.00 3.4 15.2 1720 SW | 228 0.296 2.11 754 60.1 89 17 3.04 7.80 0 32.8 32.0 1,532 1,393 0.0 0.0 0.0 0.0 -22.0 435.1 12.6
7/9/24 99.2 1314 59.0 0552 0.00 0.00 0.00 3.7 13.2 1756 SW | 227 0.294 2.12 756 56.9 80 24 3.68 5.38 0 30.0 29.1 1,499 1,361 0.0 0.0 0.0 0.0 -21.5 378.1 12.6
7/8/24 103.8 1347 61.2 0555 0.00 0.00 0.00 3.6 18.5 1608 SW | 219 0.302 2.11 756 55.4 73 21 3.39 7.10 0 32.2 32.4 1,469 1,332 0.0 0.0 0.0 0.0 -22.0 421.9 12.6
7/7/24 107.8 1358 60.8 0608 0.00 0.00 0.00 3.3 18.2 1545 WSW | 243 0.304 2.09 767 53.2 64 14 3.39 8.97 0 34.1 34.3 1,437 1,299 0.0 0.0 0.0 0.0 -22.0 468.4 12.5
7/6/24 110.4 1644 60.2 0546 0.00 0.00 0.00 3.2 13.2 1739 SW | 221 0.301 2.06 765 55.0 78 12 3.29 8.74 10 34.8 35.3 1,403 1,265 0.0 0.0 0.0 0.0 -21.5 486.1 12.6
7/5/24 105.9 1507 58.8 0608 0.00 0.00 0.00 3.6 15.2 1645 S | 191 0.309 2.04 771 54.3 74 16 2.88 7.68 20 32.6 32.3 1,368 1,230 0.0 0.0 0.0 0.0 -18.5 442.1 12.6
7/4/24 102.1 1442 57.0 0553 0.00 0.00 0.00 3.7 15.5 1655 SSW | 208 0.307 2.01 771 54.5 77 17 2.64 6.89 30 30.6 29.6 1,335 1,197 0.0 0.0 0.0 0.0 -18.0 402.0 12.6
7/3/24 104.6 1759 54.9 0616 0.00 0.00 0.00 3.2 12.1 1853 SW | 215 0.300 1.97 790 50.4 80 11 2.50 7.15 40 30.6 29.8 1,305 1,168 0.0 0.0 0.0 0.0 -18.0 408.9 12.6
7/2/24 102.7 1757 55.8 0620 0.00 0.00 0.00 2.8 10.1 1617 NNE | 27 0.290 1.96 793 53.7 93 13 2.61 6.96 50 29.7 29.2 1,274 1,138 0.0 0.0 0.0 0.0 -18.0 387.9 12.6
7/1/24 93.2 1415 52.7 0552 0.00 0.00 0.00 3.1 13.5 1707 WSW | 237 0.281 1.83 786 55.8 95 14 3.81 0.00 60 24.6 23.0 1,244 1,109 0.0 0.0 0.0 0.0 -17.0 287.2 12.6
6/30/24 88.4 1450 54.0 0539 0.00 0.00 32.03 3.9 18.2 1640 WSW | 246 0.279 1.85 781 54.6 83 33 4.92 0.00 70 22.9 21.2 1,220 1,086 0.0 0.0 0.0 0.0 -17.0 230.0 12.6
6/29/24 91.8 1439 55.0 0538 0.00 0.00 32.03 4.1 19.2 1611 SW | 231 0.279 1.87 753 53.4 85 26 4.58 0.00 80 23.7 23.4 1,197 1,065 0.0 0.0 0.0 0.0 -18.0 255.8 12.6
6/28/24 90.4 1714 50.3 0608 0.00 0.00 32.03 3.4 14.5 1805 SW | 224 0.273 1.89 774 52.5 96 21 3.47 0.00 90 21.5 20.3 1,173 1,041 0.0 0.0 0.0 0.0 -14.0 241.0 12.6
6/27/24 85.5 1551 47.1 0618 0.00 0.00 32.03 3.5 14.8 1805 WSW | 246 0.269 1.90 789 47.5 83 23 11.28 0.00 100 18.2 16.3 1,152 1,021 0.0 0.0 0.0 0.0 0.0 169.1 12.6
6/26/24 85.8 1455 52.3 0602 0.00 0.00 32.03 5.0 16.5 2007 WSW | 247 0.290 1.87 788 46.9 76 20 11.28 0.00 90 19.6 19.0 1,133 1,005 0.0 0.0 0.0 0.0 0.0 178.4 12.6
6/25/24 86.2 1619 54.6 0438 0.00 0.00 32.03 2.8 17.2 1621 S | 188 0.157 1.84 396 50.5 78 24 7.69 0.00 70 21.1 20.4 1,114 986 0.0 0.0 0.0 0.0 -17.0 205.1 12.6
6/24/24 94.0 1512 52.7 0605 0.00 0.00 32.03 3.9 15.5 1658 S | 190 0.306 1.95 802 50.3 94 12 3.29 0.00 50 24.7 23.3 1,093 965 0.0 0.0 0.0 0.0 -16.5 293.1 12.6
6/23/24 94.0 1308 53.0 0543 0.00 0.00 32.03 4.0 14.8 1522 SSW | 212 0.299 1.89 784 54.8 86 22 3.24 0.00 60 25.2 23.5 1,068 942 0.0 0.0 0.0 0.0 -17.0 305.1 12.6
6/22/24 97.0 1418 55.6 0538 0.00 0.00 32.03 3.6 13.8 1634 SSE | 167 0.297 1.84 782 55.8 86 20 3.10 4.18 70 27.0 26.3 1,043 918 0.0 0.0 0.0 0.0 -17.5 328.8 12.6
6/21/24 94.0 1531 51.2 0542 0.00 0.00 32.03 3.3 14.5 1437 SW | 233 0.282 1.79 780 52.8 85 24 4.00 0.00 80 24.2 22.6 1,016 892 0.0 0.0 0.0 0.0 -15.0 292.4 12.6
6/20/24 87.4 1507 47.8 0548 0.00 0.00 32.03 3.3 14.8 1427 W | 268 0.244 1.78 702 45.8 81 22 4.14 0.00 90 18.8 17.6 992 869 0.0 0.0 0.0 0.0 0.0 197.1 12.6
6/19/24 84.8 1506 43.4 0551 0.00 0.00 32.03 3.9 17.8 1756 S | 188 0.258 1.82 752 41.7 74 23 10.54 0.00 100 16.6 14.1 973 852 0.0 0.0 2.0 2.0 0.5 162.9 12.6
6/18/24 83.4 1524 43.0 0540 0.00 0.00 32.03 3.6 15.2 1712 W | 261 0.266 1.84 787 40.6 95 16 10.40 0.00 100 15.5 13.2 956 838 0.0 0.0 2.7 2.7 1.0 144.5 12.5
6/17/24 80.0 1642 40.8 0609 0.00 0.00 32.03 2.8 12.8 1642 WSW | 253 0.241 1.86 780 39.6 97 14 8.42 0.00 100 12.4 10.4 941 824 0.0 0.0 3.3 3.3 1.0 90.3 12.6
6/16/24 78.6 1401 43.4 0517 0.00 0.00 32.03 4.3 18.8 1457 WNW | 295 0.250 1.90 749 44.1 95 20 8.74 0.00 100 13.4 11.0 928 814 0.0 0.0 2.0 2.0 0.5 98.5 12.6
6/15/24 78.5 1553 43.4 0602 0.00 0.00 32.03 3.6 15.5 1711 WSW | 246 0.248 1.92 782 45.5 95 23 8.56 0.00 90 13.2 10.9 915 803 0.0 0.0 1.3 1.3 0.5 90.8 12.6
Max 110.4 - 64.2 - 0.00 0.00 32.03 5.0 19.2 - - 0.309 2.12 802 60.1 97 33 11.28 8.97 - 34.8 35.3 - - 0.0 0.0 3.3 3.3 1.0 486.1 12.6
Avg - - - - - - - 3.6 - - - - - - 51.6 - - 5.25 3.09 - 25.2 24.3 - - 0.0 0.0 0.4 0.4 -13.9 - -
Min 78.5 - 40.8 - 0.00 0.00 0.00 2.8 10.1 - - 0.157 1.78 396 39.6 64 11 2.50 0.00 - 12.4 10.4 - - 0.0 0.0 0.0 0.0 -24.0 90.3 12.5
Total - - - - - - - - - - - - - - - - - 157.55 92.62 - 756.6 727.6 - - 0.0 0.0 11.2 11.2 -416.5 - -